Time;durP1;ratioP1;P1;durP2;ratioP2;P2;SDS_P1;SDS_P2;PMS_P1;PMS_P2;Temp;Humidity;BMP_temperature;BMP_pressure;BME280_temperature;BME280_humidity;BME280_pressure;Samples;Min_cycle;Max_cycle;Signal;HPM_P1;HPM_P2
2021/11/08 00:00:25;;;;;;;21.73;4.53;;;;;;;6.01;66.80;100278.41;10389498;28;20049;-63
2021/11/08 00:05:28;;;;;;;22.23;4.57;;;;;;;5.99;66.75;100280.22;10388327;28;20085;-63
2021/11/08 00:10:35;;;;;;;21.15;4.90;;;;;;;5.95;66.90;100283.81;10389461;28;20045;-63
2021/11/08 00:21:01;;;;;;;24.45;4.35;;;;;;;6.02;66.84;100284.47;10357566;28;20057;-63
2021/11/08 00:26:03;;;;;;;21.20;4.22;;;;;;;6.04;67.04;100280.88;10386368;28;20083;-63
2021/11/08 00:31:05;;;;;;;22.02;4.32;;;;;;;6.09;67.14;100268.59;10388564;28;20502;-64
2021/11/08 00:36:07;;;;;;;15.80;4.20;;;;;;;6.19;67.04;100267.34;10386705;28;20133;-63
2021/11/08 00:41:09;;;;;;;23.38;4.50;;;;;;;6.27;67.04;100280.94;10403337;28;20069;-63
2021/11/08 00:46:10;;;;;;;16.10;4.28;;;;;;;6.40;66.60;100283.94;10387117;28;20059;-63
2021/11/08 00:51:14;;;;;;;21.75;4.75;;;;;;;6.43;66.57;100282.97;10387845;28;20050;-63
2021/11/08 00:56:19;;;;;;;25.23;4.50;;;;;;;6.49;66.48;100287.94;10387864;28;20515;-64
2021/11/08 01:01:22;;;;;;;19.45;4.35;;;;;;;6.34;66.64;100287.63;10386101;28;20049;-64
2021/11/08 01:06:24;;;;;;;14.80;3.75;;;;;;;6.40;66.58;100293.47;10385399;28;20053;-63
2021/11/08 01:11:25;;;;;;;22.95;4.20;;;;;;;6.40;66.75;100296.94;10387365;28;20055;-63
2021/11/08 01:16:28;;;;;;;23.65;4.65;;;;;;;6.35;66.58;100297.09;10386328;28;20149;-63
2021/11/08 01:21:30;;;;;;;21.10;4.30;;;;;;;6.32;66.70;100298.97;10386121;28;20884;-63
2021/11/08 01:26:32;;;;;;;20.08;4.45;;;;;;;6.10;67.04;100300.59;10386091;28;20057;-63
2021/11/08 01:31:34;;;;;;;20.17;4.28;;;;;;;6.01;67.32;100299.19;10385644;28;20766;-63
2021/11/08 01:36:38;;;;;;;20.90;4.32;;;;;;;5.90;67.44;100303.88;10385161;28;20037;-63
2021/11/08 01:41:41;;;;;;;24.80;4.78;;;;;;;5.79;67.76;100306.03;10385400;28;20045;-63
2021/11/08 01:46:43;;;;;;;21.63;4.28;;;;;;;5.78;67.78;100308.69;10385043;28;20060;-63
2021/11/08 01:51:45;;;;;;;23.65;4.78;;;;;;;5.76;67.87;100310.47;10384845;28;20050;-63
2021/11/08 01:56:47;;;;;;;22.05;4.32;;;;;;;5.88;67.74;100312.66;10384450;28;20048;-63
2021/11/08 02:01:54;;;;;;;21.23;4.78;;;;;;;5.91;67.96;100321.16;10384740;28;20056;-63
2021/11/08 02:06:56;;;;;;;21.55;4.35;;;;;;;5.89;67.88;100322.13;10383847;28;20049;-63
2021/11/08 02:11:58;;;;;;;21.52;4.40;;;;;;;5.97;67.75;100326.16;10385328;28;20132;-63
2021/11/08 02:17:00;;;;;;;22.73;4.50;;;;;;;6.00;67.61;100320.84;10384000;28;20687;-63
2021/11/08 02:22:04;;;;;;;22.92;4.15;;;;;;;6.08;67.44;100325.78;10382376;28;20045;-63
2021/11/08 02:27:06;;;;;;;25.92;4.10;;;;;;;6.03;67.49;100333.72;10383371;28;20053;-63
2021/11/08 02:32:08;;;;;;;18.95;4.43;;;;;;;5.87;67.79;100327.38;10384282;28;20045;-63
2021/11/08 02:37:10;;;;;;;22.17;4.45;;;;;;;5.85;67.76;100325.72;10383635;28;20293;-63
2021/11/08 02:42:12;;;;;;;18.30;4.18;;;;;;;5.85;67.73;100320.53;10381416;28;20049;-63
2021/11/08 02:47:14;;;;;;;19.23;4.20;;;;;;;5.95;67.57;100319.31;10398226;28;20064;-63
2021/11/08 02:52:19;;;;;;;19.95;4.65;;;;;;;5.99;67.16;100326.94;10383940;28;20421;-63
2021/11/08 02:57:24;;;;;;;23.08;4.72;;;;;;;6.01;67.09;100324.28;10386586;28;20053;-63
2021/11/08 03:02:26;;;;;;;20.95;4.63;;;;;;;5.88;67.36;100325.63;10394314;28;20293;-63
2021/11/08 03:07:30;;;;;;;19.08;4.43;;;;;;;5.82;67.68;100326.66;10398674;28;20053;-63
2021/11/08 03:12:36;;;;;;;19.92;4.45;;;;;;;5.93;67.69;100329.75;10399061;28;20128;-63
2021/11/08 03:17:42;;;;;;;24.15;4.68;;;;;;;6.09;67.36;100336.09;10398043;28;20061;-63
2021/11/08 03:22:55;;;;;;;17.50;3.90;;;;;;;6.21;67.38;100337.41;10398908;28;20060;-63
2021/11/08 03:27:57;;;;;;;20.98;4.45;;;;;;;6.26;67.10;100336.41;10398078;28;20059;-63
2021/11/08 03:33:00;;;;;;;21.23;4.35;;;;;;;6.39;67.04;100349.78;10397626;28;20045;-63
2021/11/08 03:38:04;;;;;;;21.75;5.00;;;;;;;6.53;66.90;100363.09;10398150;28;20077;-63
2021/11/08 03:43:10;;;;;;;17.98;4.53;;;;;;;6.62;66.61;100356.72;10397742;28;20060;-63
2021/11/08 03:48:14;;;;;;;21.90;4.45;;;;;;;6.63;66.34;100348.06;10397505;28;20061;-63
2021/11/08 03:53:16;;;;;;;17.05;4.10;;;;;;;6.45;66.72;100352.16;10397052;28;20129;-63
2021/11/08 03:58:18;;;;;;;20.15;4.28;;;;;;;6.33;67.06;100360.38;10396621;28;20575;-63
2021/11/08 04:03:20;;;;;;;19.30;4.50;;;;;;;6.28;67.07;100373.56;10394503;28;20077;-63
2021/11/08 04:08:22;;;;;;;21.25;4.68;;;;;;;6.32;67.26;100379.47;10391316;28;20049;-63
2021/11/08 04:13:30;;;;;;;23.38;4.57;;;;;;;6.34;67.31;100382.88;10389974;28;20098;-63
2021/11/08 04:18:32;;;;;;;20.15;4.85;;;;;;;6.37;67.09;100382.75;10389424;28;20297;-63
2021/11/08 04:23:34;;;;;;;19.67;4.63;;;;;;;6.48;66.95;100382.38;10389339;28;20052;-63
2021/11/08 04:28:36;;;;;;;22.10;4.57;;;;;;;6.63;66.69;100393.09;10387444;28;20489;-62
2021/11/08 04:33:47;;;;;;;16.75;3.95;;;;;;;6.68;66.39;100391.16;10386652;28;20139;-62
2021/11/08 04:39:08;;;;;;;23.90;5.03;;;;;;;6.66;66.39;100395.56;10388670;28;20138;-63
2021/11/08 05:31:48;;;;;;;18.08;5.18;;;;;;;6.58;66.41;100420.13;10353942;28;20053;-63
2021/11/08 05:36:50;;;;;;;22.15;4.63;;;;;;;6.61;66.55;100420.03;10386815;28;20050;-62
2021/11/08 05:41:51;;;;;;;21.05;4.65;;;;;;;6.51;66.83;100408.25;10385971;28;20097;-64
2021/11/08 05:46:53;;;;;;;18.63;4.70;;;;;;;6.55;67.07;100412.44;10385957;28;20089;-64
2021/11/08 05:51:55;;;;;;;25.00;7.80;;;;;;;6.58;67.06;100407.97;10386240;28;20042;-64
2021/11/08 06:49:51;;;;;;;23.92;5.30;;;;;;;6.79;66.16;100484.34;10381890;28;20045;-64
2021/11/08 06:54:54;;;;;;;20.98;5.22;;;;;;;6.91;66.08;100495.16;10382443;28;20047;-64
2021/11/08 06:59:56;;;;;;;18.10;5.03;;;;;;;6.92;66.19;100499.44;10376298;28;20049;-64
2021/11/08 07:04:58;;;;;;;21.65;5.10;;;;;;;7.02;65.98;100492.19;10375093;28;20056;-64
2021/11/08 07:10:00;;;;;;;22.33;5.43;;;;;;;7.04;65.70;100499.00;10375683;28;20057;-64
2021/11/08 07:15:04;;;;;;;19.35;5.47;;;;;;;7.14;65.66;100509.94;10380442;28;20053;-64
2021/11/08 07:20:07;;;;;;;22.63;5.57;;;;;;;7.17;65.58;100521.06;10378583;28;20359;-64
2021/11/08 07:25:09;;;;;;;24.15;5.68;;;;;;;7.22;65.37;100518.31;10381974;28;20136;-64
2021/11/08 07:30:12;;;;;;;22.20;5.70;;;;;;;7.12;65.54;100516.94;10382281;28;20049;-64
2021/11/08 07:35:14;;;;;;;20.33;6.18;;;;;;;7.14;65.87;100518.56;10383904;28;20049;-63
2021/11/08 07:40:15;;;;;;;22.17;6.88;;;;;;;7.23;66.01;100525.19;10383841;28;20307;-63
2021/11/08 07:45:17;;;;;;;31.10;8.15;;;;;;;7.28;65.79;100531.09;10389349;28;20045;-63
2021/11/08 07:50:19;;;;;;;25.02;6.22;;;;;;;7.24;65.81;100539.91;10388758;28;20049;-63
2021/11/08 07:55:21;;;;;;;22.17;5.60;;;;;;;7.29;65.66;100540.56;10390679;28;20052;-63
2021/11/08 08:00:22;;;;;;;22.02;5.68;;;;;;;7.44;65.46;100549.56;10387849;28;20683;-63
2021/11/08 08:05:24;;;;;;;20.85;5.93;;;;;;;7.66;65.04;100553.91;10388960;28;20498;-64
2021/11/08 08:10:27;;;;;;;25.38;6.45;;;;;;;7.83;64.73;100551.50;10387956;28;20493;-64
2021/11/08 08:15:30;;;;;;;23.73;5.88;;;;;;;8.08;64.34;100551.41;10388242;28;20053;-63
2021/11/08 08:20:33;;;;;;;22.83;5.75;;;;;;;8.20;64.08;100548.31;10386915;28;20048;-64
2021/11/08 08:25:35;;;;;;;20.45;5.35;;;;;;;8.38;63.23;100550.22;10388898;28;20124;-63
2021/11/08 08:30:37;;;;;;;22.67;6.20;;;;;;;8.51;63.14;100543.56;10388202;28;20501;-63
2021/11/08 08:35:41;;;;;;;24.30;5.95;;;;;;;8.59;62.74;100544.09;10387515;28;20087;-63
2021/11/08 08:40:47;;;;;;;19.38;5.10;;;;;;;8.69;62.64;100547.16;10387796;28;20052;-64
2021/11/08 08:45:49;;;;;;;22.98;6.00;;;;;;;8.76;62.40;100541.63;10388603;28;20050;-63
2021/11/08 08:50:51;;;;;;;20.05;5.60;;;;;;;8.79;62.25;100541.50;10387172;28;20053;-64
2021/11/08 08:55:53;;;;;;;20.40;5.80;;;;;;;8.89;61.97;100546.31;10386634;28;20048;-63
2021/11/08 09:00:55;;;;;;;22.13;5.60;;;;;;;9.15;61.74;100553.88;10387298;28;20090;-63
2021/11/08 09:05:57;;;;;;;19.45;5.25;;;;;;;9.37;61.15;100552.00;10367949;28;20060;-64
2021/11/08 09:10:59;;;;;;;22.70;6.68;;;;;;;9.18;60.94;100557.19;10385842;28;20851;-64
2021/11/08 09:16:01;;;;;;;23.15;5.82;;;;;;;9.39;60.92;100569.28;10386072;28;20374;-64
2021/11/08 09:21:03;;;;;;;22.42;5.65;;;;;;;9.62;60.27;100560.41;10386275;28;20553;-64
2021/11/08 09:26:06;;;;;;;19.98;5.05;;;;;;;9.62;60.05;100570.88;10385114;28;20420;-63
2021/11/08 09:31:08;;;;;;;20.33;5.40;;;;;;;9.62;60.03;100581.31;10387090;28;20417;-65
2021/11/08 09:36:12;;;;;;;17.38;5.47;;;;;;;9.65;60.00;100582.00;10385922;28;20060;-63
2021/11/08 09:41:15;;;;;;;17.85;5.32;;;;;;;9.67;59.83;100586.38;10386607;28;20766;-72
2021/11/08 09:46:17;;;;;;;24.70;5.80;;;;;;;9.68;59.85;100593.25;10384840;28;20064;-71
2021/11/08 09:51:20;;;;;;;19.27;5.45;;;;;;;9.70;59.92;100591.44;10385033;28;20187;-72
2021/11/08 09:56:21;;;;;;;21.73;6.15;;;;;;;9.87;59.69;100594.13;10385211;28;20257;-71
2021/11/08 10:01:24;;;;;;;19.13;5.47;;;;;;;10.25;59.10;100583.56;10386699;28;20095;-72
2021/11/08 10:06:28;;;;;;;19.27;5.35;;;;;;;10.72;58.18;100583.84;10385645;28;20092;-72
2021/11/08 10:11:30;;;;;;;20.40;5.40;;;;;;;10.72;58.05;100583.00;10386101;28;20446;-72
2021/11/08 10:16:34;;;;;;;26.80;5.57;;;;;;;10.97;57.51;100588.69;10385000;28;20490;-71
2021/11/08 10:21:49;;;;;;;18.92;5.25;;;;;;;11.15;56.61;100587.78;10386068;28;20053;-70
2021/11/08 10:26:54;;;;;;;23.77;5.43;;;;;;;11.43;56.29;100585.41;10383808;28;20049;-70
2021/11/08 10:32:01;;;;;;;23.27;5.25;;;;;;;11.15;56.52;100575.50;10384577;28;20049;-70
2021/11/08 10:37:06;;;;;;;20.10;5.25;;;;;;;11.20;56.84;100576.13;10385039;28;20049;-71
2021/11/08 10:42:18;;;;;;;22.08;5.65;;;;;;;11.22;56.92;100561.19;10385637;28;20348;-70
2021/11/08 10:47:21;;;;;;;23.55;5.57;;;;;;;10.85;56.70;100565.75;10384306;28;20050;-70
2021/11/08 10:52:33;;;;;;;18.92;5.70;;;;;;;10.86;56.34;100560.44;10383375;28;20123;-70
2021/11/08 10:57:34;;;;;;;21.67;5.63;;;;;;;11.19;57.51;100548.25;10384799;28;20248;-70
2021/11/08 11:02:36;;;;;;;20.30;5.93;;;;;;;11.28;56.63;100552.16;10385258;28;20049;-70
2021/11/08 11:07:41;;;;;;;20.58;5.65;;;;;;;11.34;56.24;100561.50;10384349;28;20053;-70
2021/11/08 11:12:46;;;;;;;23.60;6.03;;;;;;;11.32;56.26;100558.09;10385105;28;20490;-70
2021/11/08 11:17:58;;;;;;;18.63;5.43;;;;;;;11.12;56.62;100552.13;10386206;28;20136;-70
2021/11/08 11:23:15;;;;;;;18.63;5.43;;;;;;;11.18;55.69;100548.34;10393311;28;20247;-70
2021/11/08 11:28:23;;;;;;;22.30;5.43;;;;;;;11.10;55.45;100547.91;10392037;28;20492;-70
2021/11/08 11:33:30;;;;;;;19.95;5.40;;;;;;;10.75;56.84;100546.19;10391962;28;20061;-70
2021/11/08 11:38:41;;;;;;;17.55;5.18;;;;;;;10.63;57.56;100549.44;10392236;28;20091;-70
2021/11/08 11:43:57;;;;;;;19.35;5.57;;;;;;;10.60;57.62;100552.22;10392002;28;20428;-70
2021/11/08 11:49:03;;;;;;;25.02;6.10;;;;;;;10.46;57.59;100556.34;10391607;28;20145;-70
2021/11/08 11:54:07;;;;;;;22.55;6.65;;;;;;;10.46;57.89;100560.75;10392181;28;20519;-70
2021/11/08 11:59:11;;;;;;;20.27;5.90;;;;;;;10.20;58.38;100554.16;10390346;28;20536;-70
2021/11/08 12:04:14;;;;;;;21.27;6.65;;;;;;;10.09;58.83;100547.78;10391456;28;20045;-70
2021/11/08 12:09:18;;;;;;;25.48;6.63;;;;;;;10.40;58.71;100550.56;10390789;28;20684;-70
2021/11/08 12:14:27;;;;;;;26.25;6.20;;;;;;;10.52;58.23;100544.75;10390352;28;20063;-70
2021/11/08 12:19:33;;;;;;;20.98;6.53;;;;;;;10.75;57.55;100539.19;10390937;28;20120;-72
2021/11/08 12:24:35;;;;;;;24.98;5.80;;;;;;;10.83;57.38;100533.56;10390810;28;20950;-72
2021/11/08 12:29:48;;;;;;;20.38;5.50;;;;;;;11.04;56.87;100530.75;10389646;28;20049;-71
2021/11/08 12:34:54;;;;;;;24.30;6.45;;;;;;;11.08;56.81;100523.56;10389866;28;20053;-71
2021/11/08 12:39:59;;;;;;;22.55;6.75;;;;;;;10.95;56.89;100533.78;10390216;28;20055;-70
2021/11/08 12:45:13;;;;;;;27.08;6.47;;;;;;;11.18;56.60;100528.25;10390109;28;20047;-72
2021/11/08 12:50:32;;;;;;;22.13;6.40;;;;;;;11.38;56.22;100524.56;10389996;28;20088;-71
2021/11/08 12:55:42;;;;;;;24.20;6.57;;;;;;;11.40;56.06;100525.31;10389859;28;20306;-71
2021/11/08 13:00:50;;;;;;;22.83;6.47;;;;;;;11.55;55.90;100534.13;10388254;28;20136;-72
2021/11/08 13:05:54;;;;;;;19.45;5.43;;;;;;;11.41;55.26;100531.41;10389587;28;20148;-71
2021/11/08 13:10:59;;;;;;;20.65;5.40;;;;;;;11.38;53.89;100534.22;10388757;28;20144;-71
2021/11/08 13:16:10;;;;;;;14.95;4.68;;;;;;;11.42;54.32;100528.69;10388919;28;20222;-72
2021/11/08 13:21:23;;;;;;;18.75;5.20;;;;;;;11.45;54.45;100527.69;10387508;28;20037;-72
2021/11/08 13:26:26;;;;;;;24.65;5.32;;;;;;;11.07;55.53;100527.94;10388093;28;20144;-71
2021/11/08 13:31:28;;;;;;;20.95;5.38;;;;;;;11.06;55.65;100526.28;10386619;28;20143;-72
2021/11/08 13:36:30;;;;;;;22.30;5.70;;;;;;;11.08;56.14;100527.03;10388003;28;20710;-71
2021/11/08 13:41:36;;;;;;;20.30;5.70;;;;;;;11.10;56.13;100522.56;10387914;28;20041;-71
2021/11/08 13:46:42;;;;;;;20.92;6.00;;;;;;;11.17;56.08;100523.09;10387853;28;20446;-71
2021/11/08 13:51:54;;;;;;;19.17;6.20;;;;;;;11.16;55.97;100532.72;10387329;28;20055;-72
2021/11/08 13:57:00;;;;;;;19.73;6.30;;;;;;;11.18;56.75;100536.09;10387098;28;20088;-71
2021/11/08 14:02:11;;;;;;;20.38;5.65;;;;;;;10.90;56.63;100543.66;10387153;28;20049;-71
2021/11/08 14:07:13;;;;;;;21.27;5.53;;;;;;;10.89;56.87;100551.59;10386740;28;20478;-72
2021/11/08 14:12:17;;;;;;;15.38;4.68;;;;;;;10.90;56.46;100542.81;10386293;28;20067;-71
2021/11/08 14:17:23;;;;;;;20.67;5.80;;;;;;;10.82;57.24;100537.13;10386371;28;20420;-72
2021/11/08 14:22:27;;;;;;;15.98;5.32;;;;;;;10.84;57.11;100541.38;10385731;28;20060;-72
2021/11/08 14:27:33;;;;;;;17.40;5.68;;;;;;;10.92;57.40;100523.50;10386408;28;20045;-71
2021/11/08 14:32:35;;;;;;;20.27;5.65;;;;;;;10.95;56.98;100523.31;10386018;28;20045;-71
2021/11/08 14:37:59;;;;;;;20.35;5.40;;;;;;;10.72;56.54;100536.75;10385650;28;20068;-71
2021/11/08 14:43:22;;;;;;;24.27;5.70;;;;;;;10.55;57.09;100539.38;10385034;28;20132;-71
2021/11/08 14:48:26;;;;;;;17.20;5.18;;;;;;;10.58;57.19;100536.59;10385844;28;20059;-70
2021/11/08 14:53:49;;;;;;;21.20;6.05;;;;;;;10.63;56.98;100546.81;10384582;28;20129;-72
2021/11/08 14:59:09;;;;;;;18.02;5.35;;;;;;;10.49;57.56;100543.13;10385116;28;20057;-71
2021/11/08 15:04:21;;;;;;;21.47;6.17;;;;;;;10.47;57.68;100546.75;10385261;28;20045;-72
2021/11/08 15:09:26;;;;;;;16.33;4.85;;;;;;;10.45;57.75;100570.38;10384767;28;20107;-72
2021/11/08 15:14:28;;;;;;;19.73;5.40;;;;;;;10.29;57.96;100586.88;10383933;28;20137;-72
2021/11/08 15:19:43;;;;;;;14.70;5.18;;;;;;;10.21;58.40;100586.38;10384163;28;20049;-71
2021/11/08 15:24:44;;;;;;;18.88;5.15;;;;;;;10.12;58.15;100587.66;10384756;28;20046;-71
2021/11/08 15:29:46;;;;;;;14.93;4.90;;;;;;;10.00;58.51;100577.78;10385077;28;20053;-71
2021/11/08 15:34:48;;;;;;;17.27;6.03;;;;;;;9.88;58.96;100569.69;10384896;28;20046;-71
2021/11/08 15:39:50;;;;;;;18.25;6.45;;;;;;;9.80;59.30;100561.34;10384290;28;20077;-71
2021/11/08 15:44:52;;;;;;;23.50;6.72;;;;;;;9.72;59.18;100566.09;10385208;28;20493;-72
2021/11/08 15:49:53;;;;;;;18.77;5.95;;;;;;;9.48;59.93;100574.06;10384382;28;20054;-72
2021/11/08 15:54:55;;;;;;;18.80;5.75;;;;;;;9.41;59.92;100583.13;10384088;28;20053;-71
2021/11/08 15:59:57;;;;;;;20.90;6.43;;;;;;;9.40;60.82;100593.63;10383808;28;20482;-71
2021/11/08 16:04:58;;;;;;;24.27;8.00;;;;;;;9.43;60.44;100596.94;10388041;28;20053;-71
2021/11/08 16:10:00;;;;;;;20.75;7.68;;;;;;;9.38;61.20;100596.28;10391434;28;20057;-71
2021/11/08 16:15:03;;;;;;;19.40;7.13;;;;;;;9.39;61.10;100608.44;10390839;28;20114;-71
2021/11/08 16:20:06;;;;;;;22.15;7.25;;;;;;;9.44;61.12;100606.47;10390640;28;20474;-71
2021/11/08 16:25:08;;;;;;;20.27;7.03;;;;;;;9.50;61.21;100608.78;10387577;28;20064;-71
2021/11/08 16:30:13;;;;;;;21.67;7.28;;;;;;;9.46;61.35;100607.25;10386308;28;20087;-71
2021/11/08 16:35:15;;;;;;;24.73;7.68;;;;;;;9.39;61.18;100608.44;10388688;28;20405;-71
2021/11/08 16:40:20;;;;;;;26.88;9.82;;;;;;;9.16;61.43;100613.81;10386356;28;20445;-71
2021/11/08 16:45:25;;;;;;;26.73;8.88;;;;;;;9.18;61.94;100626.81;10384176;28;20486;-72
2021/11/08 16:50:29;;;;;;;21.38;8.18;;;;;;;9.25;61.83;100623.88;10388948;28;20541;-71
2021/11/08 16:55:32;;;;;;;20.60;7.53;;;;;;;9.19;61.56;100639.78;10388329;28;20137;-72
2021/11/08 17:00:34;;;;;;;21.75;7.93;;;;;;;9.22;61.98;100660.53;10387915;28;20493;-71
2021/11/08 17:05:40;;;;;;;20.63;8.10;;;;;;;9.19;61.74;100665.88;10387537;28;20049;-71
2021/11/08 17:16:04;;;;;;;21.92;9.00;;;;;;;9.21;62.19;100668.41;10381305;28;20136;-72
2021/11/08 17:21:06;;;;;;;22.05;9.63;;;;;;;9.19;62.34;100665.03;10386601;28;20114;-71
2021/11/08 17:26:08;;;;;;;20.20;7.82;;;;;;;9.17;62.67;100661.63;10387776;28;20049;-71
2021/11/08 17:31:11;;;;;;;21.30;6.15;;;;;;;9.12;62.80;100669.66;10386696;28;20309;-71
2021/11/08 17:36:13;;;;;;;22.42;6.13;;;;;;;9.15;62.62;100674.75;10386164;28;20057;-71
2021/11/08 17:41:15;;;;;;;23.42;6.53;;;;;;;9.15;62.64;100671.28;10386244;28;20453;-70
2021/11/08 17:46:18;;;;;;;23.08;6.18;;;;;;;9.14;62.82;100695.69;10387055;28;20059;-71
2021/11/08 17:51:20;;;;;;;21.98;6.53;;;;;;;9.18;62.47;100692.06;10385952;28;20203;-71
2021/11/08 17:56:22;;;;;;;21.45;7.65;;;;;;;9.22;62.61;100693.63;10385782;28;20433;-70
2021/11/08 18:01:24;;;;;;;20.58;7.38;;;;;;;9.15;62.68;100697.38;10384167;28;20049;-70
2021/11/08 18:06:26;;;;;;;20.40;6.70;;;;;;;9.09;62.91;100703.72;10385140;28;20054;-70
2021/11/08 18:11:28;;;;;;;26.65;6.60;;;;;;;9.04;62.84;100716.09;10385269;28;20053;-70
2021/11/08 18:16:30;;;;;;;36.05;16.65;;;;;;;9.07;62.73;100713.38;10384633;28;20068;-71
2021/11/08 18:26:56;;;;;;;24.67;8.88;;;;;;;8.95;63.14;100733.88;10384238;28;20048;-70
2021/11/08 18:32:00;;;;;;;20.30;7.68;;;;;;;9.05;62.91;100736.06;10384227;28;20052;-70
2021/11/08 18:37:03;;;;;;;24.60;8.32;;;;;;;8.94;63.41;100738.25;10382286;28;20420;-70
2021/11/08 18:42:06;;;;;;;19.13;7.85;;;;;;;8.92;63.38;100745.28;10383537;28;20407;-71
2021/11/08 18:47:08;;;;;;;19.70;7.00;;;;;;;8.87;63.52;100734.22;10384529;28;20051;-71
2021/11/08 18:52:11;;;;;;;23.70;8.60;;;;;;;8.91;63.59;100740.13;10382202;28;20053;-70
2021/11/08 18:57:16;;;;;;;22.75;7.43;;;;;;;8.92;63.42;100737.47;10380002;28;20060;-70
2021/11/08 19:12:42;;;;;;;21.50;8.80;;;;;;;8.84;63.71;100735.16;10379589;28;20051;-70
2021/11/08 19:17:45;;;;;;;26.52;12.20;;;;;;;8.84;63.77;100732.56;10380677;28;20053;-71
2021/11/08 19:22:47;;;;;;;21.02;10.75;;;;;;;8.84;63.72;100731.69;10382990;28;20049;-71
2021/11/08 19:27:49;;;;;;;24.42;10.25;;;;;;;8.81;63.63;100740.50;10378395;28;20045;-70
2021/11/08 19:33:08;;;;;;;21.65;8.43;;;;;;;8.53;64.16;100744.22;10369839;28;20049;-70
2021/11/08 19:38:10;;;;;;;22.88;9.05;;;;;;;8.28;65.00;100751.31;10380064;28;20421;-71
2021/11/08 19:43:16;;;;;;;27.92;8.65;;;;;;;8.16;65.30;100756.97;10389951;28;20297;-70
2021/11/08 19:48:19;;;;;;;21.17;9.77;;;;;;;8.16;65.63;100768.22;10386639;28;20163;-71
2021/11/08 19:53:26;;;;;;;24.23;9.63;;;;;;;8.38;65.41;100768.28;10386795;28;20053;-71
2021/11/08 19:58:28;;;;;;;27.67;11.57;;;;;;;8.56;64.98;100778.03;10388827;28;20434;-70
2021/11/08 20:03:29;;;;;;;25.98;11.15;;;;;;;8.58;64.95;100773.59;10389012;28;20753;-70
2021/11/08 20:08:31;;;;;;;19.15;8.90;;;;;;;8.56;64.94;100776.28;10384013;28;20052;-71
2021/11/08 20:18:40;;;;;;;22.02;7.82;;;;;;;8.56;64.72;100780.63;10387138;28;20092;-71
2021/11/08 20:23:42;;;;;;;21.70;7.75;;;;;;;8.46;64.69;100777.53;10388370;28;20053;-70
2021/11/08 20:28:47;;;;;;;22.58;8.25;;;;;;;8.28;65.35;100780.78;10387758;28;20045;-70
2021/11/08 21:00:12;;;;;;;29.17;11.32;;;;;;;8.15;65.81;100805.63;10387659;28;20537;-70
2021/11/08 21:05:29;;;;;;;28.30;9.77;;;;;;;8.09;65.87;100797.13;10388960;28;20049;-70
2021/11/08 21:15:45;;;;;;;27.08;10.10;;;;;;;8.27;65.74;100793.88;10385861;28;20119;-70
2021/11/08 21:20:49;;;;;;;25.63;10.02;;;;;;;8.23;65.63;100808.78;10387672;28;20049;-70
2021/11/08 21:26:10;;;;;;;27.00;10.60;;;;;;;8.00;66.46;100804.38;10387371;28;20055;-70
2021/11/08 21:41:55;;;;;;;26.00;10.82;;;;;;;8.13;66.23;100809.19;10386536;28;20147;-71
2021/11/08 21:46:57;;;;;;;27.45;10.75;;;;;;;7.88;66.70;100817.81;10387265;28;20055;-71
2021/11/08 21:51:58;;;;;;;30.17;12.48;;;;;;;8.01;66.62;100806.09;10386179;28;20069;-71
2021/11/08 21:57:00;;;;;;;26.88;10.90;;;;;;;7.98;66.51;100816.59;10386062;28;20413;-71
2021/11/08 22:02:03;;;;;;;22.60;11.20;;;;;;;8.16;66.38;100803.88;10384795;28;20081;-70
2021/11/08 22:07:05;;;;;;;23.10;11.13;;;;;;;8.28;66.01;100804.25;10386260;28;20453;-70
2021/11/08 22:12:08;;;;;;;27.08;12.15;;;;;;;8.19;65.98;100798.53;10385724;28;20053;-70
2021/11/08 22:17:11;;;;;;;31.15;12.77;;;;;;;8.08;66.30;100805.88;10385413;28;20061;-70
2021/11/08 22:22:14;;;;;;;25.52;10.90;;;;;;;8.16;66.34;100814.28;10385371;28;20160;-70
2021/11/08 22:27:16;;;;;;;26.10;10.77;;;;;;;8.22;66.24;100812.28;10385320;28;20065;-69
2021/11/08 22:32:19;;;;;;;23.33;11.13;;;;;;;8.24;65.90;100809.66;10381699;28;20502;-65
2021/11/08 22:37:20;;;;;;;25.95;11.20;;;;;;;8.11;66.12;100830.09;10385887;28;20049;-62
2021/11/08 22:42:24;;;;;;;25.33;9.90;;;;;;;8.16;66.44;100817.72;10382748;28;20077;-62
2021/11/08 22:47:25;;;;;;;24.80;10.55;;;;;;;8.26;66.17;100824.31;10385823;28;20525;-63
2021/11/08 22:52:27;;;;;;;23.42;11.18;;;;;;;8.27;65.98;100832.97;10382718;28;20088;-63
2021/11/08 22:57:29;;;;;;;25.17;11.95;;;;;;;8.27;66.08;100830.38;10383510;28;20041;-63
2021/11/08 23:02:31;;;;;;;25.02;12.52;;;;;;;8.29;66.01;100823.34;10383360;28;20049;-62
2021/11/08 23:07:32;;;;;;;25.77;11.35;;;;;;;8.19;66.05;100822.84;10383598;28;20433;-62
2021/11/08 23:12:36;;;;;;;23.90;10.52;;;;;;;8.21;66.17;100831.47;10384237;28;20142;-62
2021/11/08 23:17:39;;;;;;;26.33;10.27;;;;;;;8.21;66.07;100834.06;10392316;28;20552;-62
2021/11/08 23:22:41;;;;;;;28.02;10.30;;;;;;;8.26;66.05;100831.28;10392899;28;20072;-62
2021/11/08 23:27:44;;;;;;;22.23;10.52;;;;;;;8.25;65.88;100821.75;10390527;28;20274;-62
2021/11/08 23:32:46;;;;;;;20.45;9.32;;;;;;;8.09;66.02;100829.25;10390515;28;20476;-62
2021/11/08 23:37:49;;;;;;;24.27;11.32;;;;;;;8.08;66.34;100835.34;10392215;28;20049;-62
2021/11/08 23:42:52;;;;;;;25.60;11.98;;;;;;;8.10;66.12;100827.50;10390542;28;20076;-62
2021/11/08 23:47:54;;;;;;;25.60;10.52;;;;;;;8.04;66.52;100845.03;10391921;28;20095;-62
2021/11/08 23:52:56;;;;;;;22.75;10.57;;;;;;;8.14;66.25;100842.16;10390409;28;20088;-62
2021/11/08 23:57:58;;;;;;;21.92;9.75;;;;;;;8.12;66.09;100843.97;10389620;28;20061;-62
